x

San Clemente Basin - 27nm Se Of San Clemente Is, Ca (46086) Wave Buoy

6:50pm - Thu 17th Apr 2014 All times are PDT. -7 hours from GMT.

  • Sig Wave height 4.6ft
  • Swell Direction
  • Peak Period 11s
  • Average Period 8s
  • Wind
    9mph, 11mph gusts
  • Sea Temp 63°f
  • Air Temp 61°f
  • Sea Pressure 1011.6mb
  • San Clemente Basin - 27nm Se Of San Clemente Is, Ca
  • San Clemente Basin - 27nm Se Of San Clemente Is, Ca

More Historic Weather Station data

Upgrade to MSW Pro to gain access to the past 30 days of data for over 8000 Wavebouys and Weather Stations around the globe.

Join Pro

Comparision Forecast

View Surf forecast
   
Thu 04/17 6:50pm 4.5ft 11s 8s 9 11 mph 1011.6mb 63f 61f
5:50pm 4.5ft 9s 8s 11 13 mph 1011.4mb 63f 61f
4:50pm 5ft 12s 8s 9 13 mph 1011.4mb 63f 61f
3:50pm 5ft 11s 8s 2 4 mph 1011.3mb 63f 60f
2:50pm 5ft 11s 8s 9 11 mph 1012.5mb 63f 60f
1:50pm 5ft 13s 8s 4 7 mph 1012.6mb 63f 60f
12:50pm 4.5ft 14s 7s 7
mph
1013mb 63f 60f
11:50am 5ft 12s 8s 9
mph
1013.1mb 63f 59f
10:50am 5ft 13s 8s 4 9 mph 1012.9mb 63f 59f
9:50am 4.5ft 11s 7s 4 7 mph 1012.8mb 63f 59f
8:50am 5ft 14s 7s 7 9 mph 1012.6mb 63f 58f
7:50am 5ft 13s 7s  -  2 mph 1012.2mb 63f 58f
6:50am 5ft 13s 7s 4 7 mph 1011.7mb 63f 58f
5:50am 4.5ft 13s 7s 7 11 mph 1010.9mb 63f 59f
4:50am 5ft 11s 7s 4 7 mph 1010.9mb 63f 58f
3:50am 4.5ft 14s 7s 9 11 mph 1010.8mb 63f 58f
2:50am 5ft 14s 7s 4 7 mph 1010.6mb 63f 59f
1:50am 4.5ft 12s 7s 2 4 mph 1011mb 63f 58f
12:50am 4.5ft 14s 7s 4 7 mph 1011.8mb 63f 58f
Wed 04/16 11:50pm 5ft 14s 7s 4 7 mph 1011.7mb 63f 59f
10:50pm 4.5ft 12s 7s 4 7 mph 1011mb 63f 59f
9:50pm 5ft 10s 7s 11 13 mph 1011.1mb 63f 59f
8:50pm 5ft 9s 7s 7 11 mph 1010.9mb 64f 60f
7:50pm 5ft 10s 7s 2 7 mph 1009.8mb 64f 60f
6:50pm 4.5ft 11s 7s 9 11 mph 1009.4mb 64f 60f
5:50pm 4.5ft 10s 6s 11 13 mph 1009.7mb 64f 60f
4:50pm 4.5ft 12s 6s 11 13 mph 1009.6mb 64f 60f
3:50pm 5ft 12s 7s 13 16 mph 1009.3mb 64f 60f
2:50pm 4.5ft 13s 6s 11 13 mph 1010.1mb 64f 60f
1:50pm 5ft 13s 7s 9 11 mph 1010.5mb 64f 60f
12:50pm 5ft 7s 6s 7 9 mph 1010.9mb 64f 60f
11:50am 5ft 8s 6s 9 11 mph 1010.9mb 63f 59f
10:50am 5ft 13s 7s 4
mph
1011.6mb 63f 59f
9:50am 4.5ft 9s 7s 7 11 mph 1011.5mb 63f 59f
8:50am 4.5ft 14s 7s 7 9 mph 1011.3mb 63f 58f
7:50am 4.5ft 15s 7s 7 11 mph 1011.2mb 63f 58f
6:50am 4.5ft 15s 7s 9 11 mph 1010.8mb 63f 58f
5:50am 4.5ft 13s 7s 11 13 mph 1010.6mb 63f 59f
4:50am 4.5ft 14s 6s 13 16 mph 1010.7mb 63f 59f
3:50am 4ft 15s 6s 9 11 mph 1010.9mb 63f 59f
2:50am 3.5ft 15s 6s 9 11 mph 1011.3mb 63f 58f
1:50am 3.5ft 15s 6s 9 13 mph 1011.9mb 63f 58f
12:50am 4ft 13s 6s 7 9 mph 1012.2mb 63f 58f
Tue 04/15 11:50pm 4ft 14s 6s 4 9 mph 1012.1mb 63f 58f
10:50pm 4ft 14s 5s 9 11 mph 1012.3mb 63f 58f
9:50pm 4.5ft 14s 5s 11 13 mph 1012.6mb 63f 58f
8:50pm 4.5ft 14s 5s 16 20 mph 1011.9mb 64f 58f
7:50pm 4ft 13s 5s 16 20 mph 1011.1mb 64f 58f
6:50pm 4ft 14s 5s 16 20 mph 1011.1mb 64f 59f
5:50pm 3.5ft 15s 5s 16 18 mph 1011.3mb 64f 59f
4:50pm 3.5ft 15s 6s 16 18 mph 1011.5mb 64f 60f
3:50pm 3.5ft 15s 6s 9 11 mph 1011.9mb 64f 60f
2:50pm  -   -   -  11 13 mph 1013.1mb 64f 59f
1:50pm 3.5ft 14s 6s 11 16 mph 1013.5mb 64f 59f
12:50pm 4ft 15s 6s 11 13 mph 1014mb 63f 59f
11:50am 4ft 15s 7s 13 16 mph 1014.8mb 63f 59f
10:50am 3.5ft 14s 7s 11 13 mph 1015.4mb 63f 58f
9:50am 3.5ft 15s 6s 11 13 mph 1015.4mb 63f 58f
8:50am 3.5ft 15s 7s 7 9 mph 1014.5mb 63f 58f
7:50am 3.5ft 15s 6s 11 13 mph 1014.7mb 63f 58f
6:50am 3.5ft 14s 6s 11 13 mph 1014.6mb 63f 57f
5:50am 3.5ft 16s 6s 11 13 mph 1014.6mb 63f 57f
4:50am 3.5ft 15s 6s 9 11 mph 1015.2mb 63f 58f
3:50am 3.5ft 15s 6s 7 11 mph 1015.2mb 63f 58f
2:50am 3.5ft 16s 6s 13 16 mph 1015.5mb 63f 59f
1:50am 3.5ft 15s 6s 9 13 mph 1016.1mb 63f 59f
12:50am 3.5ft 14s 6s 4 9 mph 1016.8mb 63f 59f
Mon 04/14 11:50pm 4ft 16s 6s 7 9 mph 1017mb 63f 60f
10:50pm 4ft 16s 5s 11 13 mph 1017mb 63f 60f
9:50pm 4ft 15s 6s 16
mph
1016.7mb 63f 60f
8:50pm 4ft 16s 6s 13 16 mph 1016.6mb 63f 60f
7:50pm 4ft 15s 5s 11 13 mph 1015.9mb 63f 60f
6:50pm 4ft 15s 5s 13 18 mph 1015.8mb 63f 61f
5:50pm 4.5ft 15s 5s 16 18 mph 1015.6mb 63f 61f
4:50pm 4ft 16s 5s 16 18 mph 1015.8mb 63f 61f
3:50pm 4.5ft 16s 5s 16 18 mph 1016.2mb 63f 61f
2:50pm 4ft 16s 5s 16 18 mph 1016.8mb 63f 60f
1:50pm 3.5ft 16s 5s 18 20 mph 1017.3mb 63f 60f
12:50pm 3.5ft 16s 5s 16 18 mph 1017.5mb 63f 60f
11:50am 3.5ft 16s 6s 16 18 mph 1017.5mb 62f 60f
10:50am 3.5ft 16s 6s 13 16 mph 1017.4mb 62f 60f
9:50am 3.5ft 16s 6s 13 16 mph 1017mb 62f 60f
8:50am 3.5ft 16s 6s 11 13 mph 1017.1mb 62f 60f
7:50am 3.5ft 17s 6s 9 11 mph 1016.9mb 62f 60f
6:50am 3.5ft 12s 6s 11 13 mph 1016.5mb 62f 59f
5:50am 3.5ft 16s 6s 9 11 mph 1016.3mb 62f 59f
4:50am 3ft 10s 6s 9 11 mph 1015.9mb 62f 59f
3:50am 3ft 13s 5s 7 9 mph 1015.9mb 62f 59f